LRG weather

Loralai Airport
Loralai, Balochistan, Pakistan

Public forecast

Using degrees Celsius for public forecast. Weather courtesy of forecast.io.

Closest aviation weather report (METAR) to Loralai Airport

Closest report is Multan International Airport, 145.8 nm (269.9 km) E. Retrieved 2019/10/23 07:30 UTC (0 seconds ago):

OPMT 230730Z 00000KT 2500 HZ NSC 30/15 Q1008 NOSIG

Closest aviation forecast (TAF) to Loralai Airport

Forecast is more than 12 hours old.

Closest forecast is Dera Ghazi Khan Airport, 100.0 nm (185.3 km) ESE. Retrieved 2019/10/22 18:10 UTC (13 hours ago):

TAF OPDG 221610Z 2218/2312 18005KT 4000 FU FEW120 TN19/2301Z TX32/2310Z FM 230600 18005KT 6000 FEW120